Latest Weather Observations for Jervis Bay Airfield

IDN60901

Issued at 7:21 pm EST Wednesday 17 July 2024 (issued every 10 minutes, with the page automatically refreshed every 10 minutes)

About weather observations | Map of Canberra area stations | Latest observations for Canberra area | Other Formats
Station Details ID: 068264 Name: JERVIS BAY AIRFIELD AWS Lat: -35.14 Lon: 150.70 Height: 57.18 m
Data from the previous 72 hours. | See also: Recent months at Jervis Bay Airfield
Date/Time
EST
Temp
°C
App
Temp
°C
Dew
Point
°C
Rel
Hum
%
Delta-T
°C
Wind Press
QNH
hPa
Press
MSL
hPa
Rain since
9am
mm
Dir  Spd
km/h
Gust
km/h
Spd
kts
Gust
kts
17/07:00pm 14.4 8.2 6.0 57 4.0 SSW 28 41 15 22 1008.6 1008.6 0.2
17/06:30pm 14.5 7.5 5.8 56 4.2 SSW 32 46 17 25 1008.1 1008.1 0.2
17/06:00pm 14.4 8.1 5.7 56 4.2 SSW 28 46 15 25 1007.6 1007.6 0.2
17/05:55pm 14.5 8.2 5.6 55 4.2 SW 28 46 15 25 1007.5 1007.5 0.2
17/05:30pm 14.4 7.8 7.7 64 3.3 SSW 32 46 17 25 1007.2 1007.2 0.2
17/05:00pm 13.1 7.7 9.4 78 1.9 SW 28 50 15 27 1006.9 1006.9 0.2
17/04:58pm 13.3 7.9 9.4 77 2.0 SW 28 46 15 25 1006.9 1006.9 0.2
17/04:30pm 14.3 9.2 7.6 64 3.3 SW 24 35 13 19 1006.3 1006.3 0.2
17/04:01pm 14.3 8.4 7.6 64 3.3 SW 28 46 15 25 1006.3 1006.3 0.2
17/04:00pm 14.3 8.1 7.8 65 3.2 SW 30 46 16 25 1006.3 1006.3 0.2
17/03:53pm 14.4 8.5 7.7 64 3.3 SW 28 46 15 25 1006.3 1006.3 0.2
17/03:30pm 14.2 8.6 8.8 70 2.7 SW 28 41 15 22 1006.1 1006.1 0.2
17/03:04pm 14.6 7.9 8.3 66 3.2 SSW 33 52 18 28 1005.5 1005.5 0.2
17/03:00pm 14.7 7.7 8.6 67 3.1 SSW 35 52 19 28 1005.5 1005.5 0.2
17/02:30pm 13.9 7.3 9.9 77 2.1 SSW 35 54 19 29 1005.2 1005.2 0.2
17/02:00pm 14.6 9.0 10.0 74 2.4 SSW 30 50 16 27 1004.8 1004.8 0.0
17/01:59pm 14.7 9.0 9.7 72 2.6 SSW 30 50 16 27 1004.8 1004.8 0.0
17/01:30pm 15.9 10.5 8.2 60 3.9 SW 26 37 14 20 1004.5 1004.5 0.0
17/01:00pm 15.5 9.6 7.5 59 4.0 SSW 28 43 15 23 1004.5 1004.5 0.0
17/12:30pm 15.4 9.6 7.9 61 3.8 SW 28 46 15 25 1004.8 1004.8 0.0
17/12:28pm 15.5 9.6 7.3 58 4.1 SW 28 46 15 25 1004.7 1004.7 0.0
17/12:00pm 16.0 10.5 7.7 58 4.2 SW 26 37 14 20 1004.7 1004.7 0.0
17/11:30am 15.9 10.2 6.9 55 4.4 SW 26 41 14 22 1004.9 1004.9 0.0
17/11:00am 15.3 10.0 6.8 57 4.2 SW 24 35 13 19 1005.2 1005.2 0.0
17/10:30am 15.2 10.3 7.0 58 4.0 WSW 22 35 12 19 1005.3 1005.3 0.0
17/10:00am 15.1 9.8 6.7 57 4.1 WSW 24 37 13 20 1005.2 1005.2 0.0
17/09:30am 14.6 9.7 6.7 59 3.8 WSW 22 33 12 18 1005.0 1005.0 0.0
17/09:00am 14.3 9.7 6.4 59 3.8 WSW 20 32 11 17 1004.7 1004.7 0.0
17/08:30am 14.3 9.7 6.6 60 3.7 SW 20 32 11 17 1004.4 1004.4 0.0
17/08:00am 11.4 8.0 5.7 68 2.7 W 13 17 7 9 1004.3 1004.3 0.0
17/07:30am 11.9 7.6 5.3 64 3.1 W 17 24 9 13 1003.7 1003.7 0.0
17/07:00am 11.5 6.9 5.4 66 2.8 W 19 24 10 13 1003.4 1003.4 0.0
17/06:30am 11.9 7.7 5.5 65 3.0 WNW 17 24 9 13 1003.2 1003.1 0.0
17/06:00am 12.0 7.2 5.4 64 3.1 W 20 32 11 17 1002.7 1002.6 0.0
17/05:30am 10.9 6.6 5.4 69 2.5 W 17 22 9 12 1002.3 1002.2 0.0
17/05:00am 11.0 6.3 5.3 68 2.6 W 19 28 10 15 1002.0 1001.9 0.0
17/04:30am 10.9 6.3 5.4 69 2.5 WNW 19 28 10 15 1001.8 1001.7 0.0
17/04:00am 11.0 6.3 5.3 68 2.6 WNW 19 28 10 15 1001.8 1001.7 0.0
17/03:30am 10.8 6.1 5.3 69 2.5 W 19 26 10 14 1001.9 1001.8 0.0
17/03:00am 11.0 6.3 5.3 68 2.6 W 19 30 10 16 1002.0 1001.9 0.0
17/02:30am 11.3 6.7 5.4 67 2.7 W 19 30 10 16 1002.0 1001.9 0.0
17/02:00am 11.3 6.7 5.4 67 2.7 W 19 24 10 13 1002.1 1002.0 0.0
17/01:30am 10.9 6.3 5.4 69 2.5 W 19 26 10 14 1002.1 1002.0 0.0
17/01:00am 11.2 6.4 5.5 68 2.6 W 20 28 11 15 1002.1 1002.0 0.0
17/12:30am 11.7 6.9 5.8 67 2.8 W 20 28 11 15 1002.2 1002.1 0.0
17/12:00am 11.5 6.8 6.0 69 2.6 W 20 28 11 15 1002.2 1002.1 0.0
 
Date/Time
EST
Temp
°C
App
Temp
°C
Dew
Point
°C
Rel
Hum
%
Delta-T
°C
Wind Press
QNH
hPa
Press
MSL
hPa
Rain since
9am
mm
Dir  Spd
km/h
Gust
km/h
Spd
kts
Gust
kts
16/11:30pm 11.5 7.0 6.2 70 2.5 W 19 30 10 16 1002.3 1002.2 0.0
16/11:00pm 11.8 7.2 6.5 70 2.5 W 20 28 11 15 1002.3 1002.2 0.0
16/10:30pm 12.0 7.6 6.5 69 2.6 WNW 19 30 10 16 1002.3 1002.2 0.0
16/10:00pm 11.9 7.5 6.6 70 2.5 WNW 19 26 10 14 1002.2 1002.1 0.0
16/09:30pm 11.6 7.2 6.7 72 2.3 WNW 19 30 10 16 1002.2 1002.1 0.0
16/09:00pm 11.6 7.1 6.9 73 2.3 WNW 20 28 11 15 1002.0 1001.9 0.0
16/08:30pm 11.8 7.9 7.3 74 2.2 W 17 24 9 13 1001.8 1001.7 0.0
16/08:00pm 12.6 8.2 7.5 71 2.5 W 20 32 11 17 1001.8 1001.7 0.0
16/07:30pm 12.5 7.6 7.0 69 2.7 W 22 35 12 19 1001.4 1001.3 0.0
16/07:00pm 12.6 7.6 6.6 67 2.9 WNW 22 32 12 17 1000.9 1000.9 0.0
16/06:30pm 12.6 7.6 6.6 67 2.9 W 22 32 12 17 1000.6 1000.6 0.0
16/06:00pm 12.6 8.0 6.6 67 2.9 WNW 20 32 11 17 1000.5 1000.5 0.0
16/05:30pm 12.8 8.4 6.6 66 3.0 W 19 28 10 15 1000.2 1000.2 0.0
16/05:00pm 13.2 8.6 6.3 63 3.3 W 20 32 11 17 999.8 999.8 0.0
16/04:30pm 13.7 9.6 6.1 60 3.6 W 17 24 9 13 999.5 999.5 0.0
16/04:00pm 13.8 10.5 6.4 61 3.6 W 13 17 7 9 999.2 999.2 0.0
16/03:30pm 14.3 10.5 5.9 57 4.0 W 15 20 8 11 999.0 999.0 0.0
16/03:00pm 14.7 9.8 5.2 53 4.5 W 20 28 11 15 998.9 998.9 0.0
16/02:30pm 14.4 10.5 5.5 55 4.2 W 15 20 8 11 998.9 998.9 0.0
16/02:00pm 14.5 10.7 5.6 55 4.3 W 15 24 8 13 998.9 998.9 0.0
16/01:30pm 14.0 9.8 5.6 57 4.0 W 17 28 9 15 998.9 998.9 0.0
16/01:00pm 14.0 9.7 5.4 56 4.1 W 17 24 9 13 998.9 998.9 0.0
16/12:30pm 13.6 9.2 5.0 56 4.0 W 17 26 9 14 999.2 999.2 0.0
16/12:00pm 13.2 8.4 4.6 56 4.0 W 19 24 10 13 999.5 999.5 0.0
16/11:30am 13.3 8.2 3.9 53 4.3 WSW 20 32 11 17 999.7 999.7 0.0
16/11:00am 13.7 9.0 5.1 56 4.0 W 19 30 10 16 999.8 999.8 0.0
16/10:30am 13.2 7.8 4.4 55 4.0 WSW 22 35 12 19 999.8 999.8 0.0
16/10:00am 12.5 7.7 4.7 59 3.6 W 19 28 10 15 999.7 999.7 0.0
16/09:30am 12.0 7.1 4.2 59 3.5 W 19 26 10 14 999.5 999.5 0.0
16/09:00am 11.5 7.0 4.0 60 3.4 W 17 24 9 13 999.3 999.3 0.4
16/08:30am 10.8 5.8 3.8 62 3.1 W 19 28 10 15 998.9 998.9 0.4
16/08:00am 10.3 5.6 3.3 62 3.1 W 17 22 9 12 998.4 998.4 0.4
16/07:30am 10.2 5.5 3.0 61 3.1 W 17 26 9 14 998.2 998.2 0.4
16/07:00am 10.0 5.7 3.5 64 2.9 W 15 20 8 11 997.9 997.9 0.4
16/06:30am 10.0 4.8 3.5 64 2.8 W 20 33 11 18 997.5 997.5 0.4
16/06:00am 9.6 4.6 3.6 66 2.6 W 19 28 10 15 997.3 997.3 0.4
16/05:33am 9.5 2.8 3.9 68 2.5 WNW 28 46 15 25 996.9 996.9 0.4
16/05:30am 9.4 3.9 4.0 69 2.4 WNW 22 39 12 21 996.9 996.9 0.4
16/05:00am 9.0 3.6 4.4 73 2.1 WNW 22 43 12 23 997.0 997.0 0.2
16/04:30am 9.0 3.2 4.2 72 2.1 WNW 24 39 13 21 997.1 997.1 0.2
16/04:00am 9.2 3.4 4.2 71 2.2 WNW 24 39 13 21 997.2 997.2 0.2
16/03:32am 9.5 2.8 3.9 68 2.5 WNW 28 46 15 25 997.3 997.3 0.0
16/03:30am 9.5 3.3 4.1 69 2.4 WNW 26 46 14 25 997.4 997.4 0.0
16/03:14am 9.9 3.2 3.9 66 2.6 WNW 28 46 15 25 997.2 997.2 0.0
16/03:00am 9.9 3.6 3.9 66 2.7 WNW 26 43 14 23 997.5 997.5 0.0
16/02:31am 10.3 3.5 3.3 62 3.1 WNW 28 46 15 25 997.3 997.3 0.0
16/02:30am 10.1 3.4 3.6 64 2.8 WNW 28 44 15 24 997.4 997.4 0.0
16/02:02am 10.6 3.0 2.9 59 3.3 WNW 32 50 17 27 997.7 997.7 0.0
16/02:00am 10.5 3.3 3.1 60 3.2 WNW 30 46 16 25 997.9 997.9 0.0
16/01:30am 10.2 2.6 3.0 61 3.1 WNW 32 54 17 29 997.8 997.8 0.0
16/01:00am 10.3 2.4 2.2 57 3.5 WNW 33 52 18 28 998.2 998.2 0.0
16/12:32am 10.5 3.5 1.9 55 3.6 WNW 28 46 15 25 998.8 998.8 0.0
16/12:30am 10.5 3.5 2.1 56 3.6 WNW 28 39 15 21 998.8 998.8 0.0
16/12:00am 10.6 4.4 1.9 55 3.7 WNW 24 39 13 21 999.5 999.5 0.0
 
Date/Time
EST
Temp
°C
App
Temp
°C
Dew
Point
°C
Rel
Hum
%
Delta-T
°C
Wind Press
QNH
hPa
Press
MSL
hPa
Rain since
9am
mm
Dir  Spd
km/h
Gust
km/h
Spd
kts
Gust
kts
15/11:30pm 10.6 3.9 1.7 54 3.8 WNW 26 43 14 23 999.9 999.9 0.0
15/11:00pm 10.7 3.6 1.3 52 4.0 WNW 28 44 15 24 1000.3 1000.3 0.0
15/10:49pm 10.8 3.7 1.6 53 3.9 WNW 28 56 15 30 1000.5 1000.5 0.0
15/10:30pm 10.8 4.5 1.4 52 3.9 WNW 24 37 13 20 1000.8 1000.8 0.0
15/10:00pm 10.6 5.4 2.4 57 3.5 WNW 19 28 10 15 1001.3 1001.2 0.0
15/09:30pm 10.2 5.4 2.6 59 3.3 WNW 17 37 9 20 1001.4 1001.3 0.0
15/09:00pm 10.3 4.1 2.4 58 3.4 WNW 24 35 13 19 1001.4 1001.3 0.0
15/08:30pm 10.3 4.9 2.7 59 3.3 WNW 20 30 11 16 1001.8 1001.7 0.0
15/08:00pm 10.0 4.3 2.8 61 3.1 WNW 22 33 12 18 1001.8 1001.7 0.0
15/07:30pm 10.3 3.8 2.7 59 3.3 WNW 26 44 14 24 1001.9 1001.8 0.0
15/07:00pm 10.2 4.8 2.6 59 3.3 WNW 20 32 11 17 1002.3 1002.2 0.0
15/06:30pm 10.4 5.2 2.3 57 3.5 WNW 19 28 10 15 1002.6 1002.5 0.0
15/06:00pm 10.4 5.0 2.3 57 3.5 WNW 20 30 11 16 1002.6 1002.5 0.0
15/05:30pm 10.4 4.6 2.3 57 3.5 WNW 22 37 12 20 1002.5 1002.4 0.0
15/05:00pm 11.1 4.9 2.2 54 3.8 WNW 24 37 13 20 1002.4 1002.3 0.0
15/04:30pm 11.6 5.4 2.1 52 4.1 WNW 24 35 13 19 1002.3 1002.2 0.0
15/04:00pm 12.2 6.0 2.1 50 4.4 WNW 24 39 13 21 1002.3 1002.2 0.0
15/03:30pm 12.6 6.0 1.9 48 4.6 WNW 26 39 14 21 1002.4 1002.3 0.0
15/03:00pm 12.9 6.2 1.6 46 4.9 WNW 26 41 14 22 1002.7 1002.6 0.0
15/02:30pm 13.4 7.8 1.4 44 5.2 WNW 20 37 11 20 1002.7 1002.6 0.0
15/02:00pm 13.4 7.8 1.4 44 5.2 WNW 20 39 11 21 1002.8 1002.7 0.0
15/01:30pm 13.4 7.9 1.7 45 5.1 WNW 20 28 11 15 1003.1 1003.0 0.0
15/01:00pm 13.1 7.1 1.1 44 5.1 WNW 22 41 12 22 1003.4 1003.4 0.0
15/12:30pm 12.9 6.2 1.3 45 5.0 WNW 26 41 14 22 1003.7 1003.7 0.0
15/12:00pm 12.8 6.9 1.5 46 4.9 WNW 22 35 12 19 1004.3 1004.3 0.0
15/11:30am 12.4 6.5 1.7 48 4.6 NW 22 35 12 19 1004.9 1004.9 0.0
15/11:00am 12.0 6.6 2.2 51 4.3 WNW 20 32 11 17 1005.5 1005.5 0.0
15/10:30am 11.1 5.2 1.9 53 3.9 WNW 22 33 12 18 1006.1 1006.1 0.0
15/10:00am 10.5 4.9 1.1 52 3.9 WNW 20 28 11 15 1006.4 1006.4 0.0
15/09:30am 9.6 3.6 1.0 55 3.5 WNW 22 33 12 18 1006.5 1006.5 0.0
15/09:00am 9.0 2.9 0.7 56 3.4 WNW 22 30 12 16 1006.5 1006.5 0.0
15/08:30am 8.3 2.6 0.8 59 3.0 WNW 20 33 11 18 1006.6 1006.6 0.0
15/08:00am 7.7 1.6 0.7 61 2.8 WNW 22 41 12 22 1006.4 1006.4 0.0
15/07:30am 7.0 2.3 1.1 66 2.4 WNW 15 22 8 12 1006.5 1006.5 0.0
15/07:00am 7.2 1.5 0.6 63 2.6 WNW 20 32 11 17 1006.4 1006.4 0.0
15/06:30am 7.2 2.2 1.1 65 2.4 WNW 17 30 9 16 1006.2 1006.2 0.0
15/06:00am 7.2 2.2 1.3 66 2.4 WNW 17 28 9 15 1006.2 1006.2 0.0
15/05:30am 7.1 2.5 1.6 68 2.2 WNW 15 22 8 12 1006.0 1006.0 0.0
15/05:00am 7.3 2.3 1.6 67 2.3 WNW 17 28 9 15 1005.9 1005.9 0.0
15/04:30am 7.4 2.5 1.7 67 2.3 WNW 17 30 9 16 1006.0 1006.0 0.0
15/04:00am 7.0 2.8 1.7 69 2.2 W 13 20 7 11 1006.3 1006.3 0.0
15/03:30am 7.4 3.3 2.1 69 2.2 W 13 17 7 9 1006.5 1006.5 0.0
15/03:00am 7.5 3.0 2.0 68 2.3 WNW 15 20 8 11 1006.8 1006.8 0.0
15/02:30am 7.8 3.3 2.1 67 2.4 W 15 22 8 12 1006.9 1006.9 0.0
15/02:00am 7.8 3.7 2.3 68 2.3 W 13 20 7 11 1007.0 1007.0 0.0
15/01:30am 8.1 3.3 2.6 68 2.3 WNW 17 26 9 14 1006.8 1006.8 0.0
15/01:00am 8.1 2.9 2.4 67 2.4 W 19 22 10 12 1006.9 1006.9 0.0
15/12:30am 7.7 3.6 2.2 68 2.3 W 13 17 7 9 1007.2 1007.2 0.0
15/12:00am 7.9 3.8 2.4 68 2.3 W 13 19 7 10 1007.4 1007.4 0.0
 
Date/Time
EST
Temp
°C
App
Temp
°C
Dew
Point
°C
Rel
Hum
%
Delta-T
°C
Wind Press
QNH
hPa
Press
MSL
hPa
Rain since
9am
mm
Dir  Spd
km/h
Gust
km/h
Spd
kts
Gust
kts
14/11:30pm 8.5 5.5 2.3 65 2.6 SW 7 11 4 6 1007.9 1007.9 0.0
14/11:00pm 9.4 5.7 2.3 61 3.0 W 11 19 6 10 1008.3 1008.3 0.0
14/10:30pm 9.6 5.5 2.5 61 3.0 SSW 13 19 7 10 1008.5 1008.5 0.0
14/10:00pm 9.8 4.4 2.6 61 3.1 WNW 20 32 11 17 1008.1 1008.1 0.0
14/09:30pm 9.7 4.9 2.6 61 3.0 W 17 28 9 15 1008.1 1008.1 0.0
14/09:00pm 9.5 5.1 2.6 62 2.9 WNW 15 20 8 11 1008.1 1008.1 0.0
14/08:30pm 9.8 5.3 2.4 60 3.1 WNW 15 24 8 13 1008.1 1008.1 0.0
14/08:00pm 10.1 6.0 2.5 59 3.3 WNW 13 20 7 11 1008.3 1008.3 0.0
14/07:30pm 10.0 5.9 2.1 58 3.3 WNW 13 19 7 10 1008.3 1008.3 0.0

Latest Capital City Observations: Canberra | Sydney | Melbourne | Brisbane | Adelaide | Perth | Hobart | Darwin

Other formats

Comma delimited format used in spreadsheet applications
http://www.bom.gov.au/fwo/IDN60903/IDN60903.94751.axf

JavaScript Object Notation format (JSON) in row-major order
http://www.bom.gov.au/fwo/IDN60903/IDN60903.94751.json

Data quality

Most of these data are generated automatically and are frequently updated. Quality checks on data are not normally performed. It is possible for incorrect values to appear. Refer to information at About Latest Weather Observations and please check the disclaimer before using these data.